createdAt,value
2022-10-04T00:02:45.868Z,11.57
2022-10-04T00:05:52.589Z,12.67
2022-10-04T00:09:00.513Z,14.27
2022-10-04T00:12:05.889Z,17.33
2022-10-04T00:15:22.761Z,11.47
2022-10-04T00:18:32.890Z,18.57
2022-10-04T00:22:14.065Z,15.20
2022-10-04T00:25:22.740Z,17.00
2022-10-04T00:28:49.502Z,15.63
2022-10-04T00:32:31.234Z,13.27
2022-10-04T00:35:51.678Z,13.83
2022-10-04T00:39:50.479Z,13.93
2022-10-04T00:43:05.991Z,14.87
2022-10-04T00:46:24.850Z,14.37
2022-10-04T00:49:44.768Z,11.67
2022-10-04T00:52:54.710Z,11.87
2022-10-04T00:56:05.675Z,12.43
2022-10-04T00:59:28.697Z,13.67
2022-10-04T01:02:51.607Z,14.70
2022-10-04T01:06:09.626Z,10.60
2022-10-04T01:09:21.551Z,13.57
2022-10-04T01:12:44.029Z,20.23
2022-10-04T01:16:02.946Z,11.30
2022-10-04T01:19:33.278Z,14.87
2022-10-04T01:22:52.680Z,13.27
2022-10-04T01:25:59.161Z,19.50
2022-10-04T01:29:08.671Z,12.53
2022-10-04T01:32:11.823Z,14.53
2022-10-04T01:35:20.321Z,12.73
2022-10-04T01:38:24.648Z,15.70
2022-10-04T01:41:38.662Z,15.60
2022-10-04T01:44:52.615Z,21.53
2022-10-04T01:48:00.967Z,17.03
2022-10-04T01:51:09.794Z,15.53
2022-10-04T01:54:18.279Z,17.07
2022-10-04T01:57:27.567Z,17.23
2022-10-04T02:00:31.898Z,13.27
2022-10-04T02:03:38.637Z,16.67
2022-10-04T02:06:44.990Z,15.33
2022-10-04T02:09:55.732Z,16.83
2022-10-04T02:12:59.405Z,17.67
2022-10-04T02:16:03.868Z,16.73
2022-10-04T02:19:11.563Z,19.00
2022-10-04T02:22:14.849Z,11.00
2022-10-04T02:25:21.348Z,15.93
2022-10-04T02:28:33.237Z,13.10
2022-10-04T02:31:56.599Z,10.70
2022-10-04T02:34:59.923Z,15.37
2022-10-04T02:38:10.230Z,12.50
2022-10-04T02:41:26.181Z,10.90
2022-10-04T02:44:35.055Z,11.90
2022-10-04T02:47:46.202Z,13.27
2022-10-04T02:50:54.854Z,15.33
2022-10-04T02:54:06.529Z,10.23
2022-10-04T02:57:18.581Z,11.43
2022-10-04T03:00:34.771Z,23.37
2022-10-04T03:03:46.831Z,12.00
2022-10-04T03:06:55.841Z,10.63
2022-10-04T03:09:58.882Z,15.10
2022-10-04T03:13:03.661Z,13.53
2022-10-04T03:16:07.909Z,19.40
2022-10-04T03:19:13.327Z,11.27
2022-10-04T03:22:17.361Z,16.00
2022-10-04T03:25:27.368Z,18.83
2022-10-04T03:28:33.104Z,13.10
2022-10-04T03:31:39.602Z,14.00
2022-10-04T03:34:48.560Z,13.07
2022-10-04T03:37:51.771Z,14.87
2022-10-04T03:40:59.040Z,14.33
2022-10-04T03:44:05.176Z,13.53
2022-10-04T03:47:12.015Z,15.33
2022-10-04T03:50:20.093Z,18.33
2022-10-04T03:53:31.930Z,10.53
2022-10-04T03:56:36.752Z,16.17
2022-10-04T03:59:41.304Z,17.37
2022-10-04T04:02:48.014Z,21.60
2022-10-04T04:05:54.589Z,17.10
2022-10-04T04:08:59.164Z,16.77
2022-10-04T04:12:05.463Z,11.60
2022-10-04T04:15:12.545Z,11.80
2022-10-04T04:18:20.361Z,17.57
2022-10-04T04:21:24.930Z,17.87
2022-10-04T04:24:32.144Z,17.23
2022-10-04T04:27:39.877Z,16.83
2022-10-04T04:30:50.749Z,10.37
2022-10-04T04:33:59.515Z,21.63
2022-10-04T04:37:05.311Z,17.43
2022-10-04T04:40:22.822Z,17.43
2022-10-04T04:43:28.519Z,15.70
2022-10-04T04:46:33.321Z,14.57
2022-10-04T04:49:41.049Z,23.50
2022-10-04T04:52:50.185Z,14.97
2022-10-04T04:56:03.931Z,18.73
2022-10-04T04:59:09.065Z,13.97
2022-10-04T05:02:36.101Z,15.20
2022-10-04T05:05:39.053Z,13.07
2022-10-04T05:08:50.349Z,14.17
2022-10-04T05:11:58.188Z,20.33
2022-10-04T05:15:01.293Z,18.30
2022-10-04T05:18:21.393Z,12.73
2022-10-04T05:21:29.183Z,22.50
2022-10-04T05:24:34.882Z,12.53
2022-10-04T05:27:41.170Z,17.27
2022-10-04T05:30:53.806Z,23.17
2022-10-04T05:33:59.632Z,13.10
2022-10-04T05:37:46.655Z,17.00
2022-10-04T05:40:57.726Z,15.17
2022-10-04T05:44:02.431Z,19.47
2022-10-04T05:47:08.610Z,23.43
2022-10-04T05:50:20.776Z,15.77
2022-10-04T05:53:33.543Z,22.50
2022-10-04T05:57:19.211Z,24.77
2022-10-04T06:00:25.112Z,16.23
2022-10-04T06:03:40.520Z,14.37
2022-10-04T06:06:52.624Z,14.80
2022-10-04T06:10:38.421Z,12.90
2022-10-04T06:14:20.811Z,16.97
2022-10-04T06:17:47.436Z,14.13
2022-10-04T06:21:21.372Z,15.03
2022-10-04T06:24:29.286Z,12.97
2022-10-04T06:27:41.619Z,11.67
2022-10-04T06:31:17.485Z,9.33
2022-10-04T06:34:49.986Z,11.87
2022-10-04T06:38:33.021Z,18.33
2022-10-04T06:41:54.737Z,15.47
2022-10-04T06:45:21.157Z,10.83
2022-10-04T06:48:45.499Z,14.43
2022-10-04T06:52:07.780Z,10.67
2022-10-04T06:56:07.224Z,16.93
2022-10-04T06:59:36.260Z,13.57
2022-10-04T07:02:45.942Z,11.20
2022-10-04T07:05:55.513Z,16.07
2022-10-04T07:09:05.613Z,9.23
2022-10-04T07:12:16.094Z,13.47
2022-10-04T07:15:25.810Z,13.83
2022-10-04T07:18:35.968Z,13.93
2022-10-04T07:21:47.130Z,16.77
2022-10-04T07:25:04.849Z,11.13
2022-10-04T07:28:34.405Z,17.37
2022-10-04T07:31:39.720Z,13.80
2022-10-04T07:34:52.061Z,13.80
2022-10-04T07:38:01.659Z,9.07
2022-10-04T07:41:11.820Z,11.23
2022-10-04T07:44:32.502Z,9.83
2022-10-04T07:47:36.917Z,15.60
2022-10-04T07:50:45.897Z,14.07
2022-10-04T07:53:55.037Z,15.53
2022-10-04T07:57:04.319Z,11.40
2022-10-04T08:00:17.087Z,14.80
2022-10-04T08:03:49.459Z,15.07
2022-10-04T08:06:59.706Z,18.53
2022-10-04T08:10:14.024Z,15.20
2022-10-04T08:13:27.970Z,20.60
2022-10-04T08:16:38.993Z,14.50
2022-10-04T08:19:55.485Z,12.47
2022-10-04T08:23:22.032Z,13.50
2022-10-04T08:26:47.027Z,12.73
2022-10-04T08:30:10.969Z,13.33
2022-10-04T08:33:29.934Z,11.80
2022-10-04T08:36:53.424Z,19.57
2022-10-04T08:40:24.275Z,12.00
2022-10-04T08:44:18.910Z,18.00
2022-10-04T08:48:08.230Z,11.07
2022-10-04T08:51:51.339Z,11.27
2022-10-04T08:55:27.078Z,11.00
2022-10-04T08:59:06.884Z,13.83
2022-10-04T09:02:41.309Z,14.97
2022-10-04T09:06:13.109Z,15.13
2022-10-04T09:09:57.586Z,11.43
2022-10-04T09:13:28.055Z,16.63
2022-10-04T09:16:44.011Z,11.97
2022-10-04T09:20:09.043Z,9.85
2022-10-04T09:23:49.072Z,13.00
2022-10-04T09:27:05.945Z,13.25
2022-10-04T09:30:20.744Z,13.55
2022-10-04T09:34:03.905Z,16.83
2022-10-04T09:37:36.925Z,8.13
2022-10-04T09:41:11.524Z,12.75
2022-10-04T09:45:06.156Z,11.65
2022-10-04T09:48:27.898Z,11.45
2022-10-04T09:52:08.228Z,6.97
2022-10-04T09:55:34.962Z,7.90
2022-10-04T09:59:07.462Z,9.45
2022-10-04T10:02:57.084Z,8.77
2022-10-04T10:06:45.810Z,7.68
2022-10-04T10:10:20.358Z,8.85
2022-10-04T10:14:05.282Z,6.50
2022-10-04T10:17:24.494Z,8.65
2022-10-04T10:21:22.981Z,8.15
2022-10-04T10:25:04.341Z,5.97
2022-10-04T10:28:40.868Z,8.02
2022-10-04T10:32:01.972Z,9.30
2022-10-04T10:35:33.058Z,14.63
2022-10-04T10:39:01.827Z,7.68
2022-10-04T10:42:49.916Z,9.02
2022-10-04T10:46:05.899Z,5.82
2022-10-04T10:49:31.990Z,10.70
2022-10-04T10:53:17.464Z,8.90
2022-10-04T10:56:39.883Z,13.45
2022-10-04T11:00:11.895Z,8.38
2022-10-04T11:03:35.431Z,6.68
2022-10-04T11:07:22.946Z,10.43
2022-10-04T11:10:59.622Z,8.10
2022-10-04T11:14:30.364Z,8.68
2022-10-04T11:18:06.876Z,11.23
2022-10-04T11:21:51.525Z,8.02
2022-10-04T11:25:25.352Z,5.97
2022-10-04T11:28:43.315Z,6.45
2022-10-04T11:32:18.046Z,11.65
2022-10-04T11:35:59.446Z,8.98
2022-10-04T11:39:35.992Z,10.35
2022-10-04T11:43:02.187Z,8.80
2022-10-04T11:46:25.060Z,7.97
2022-10-04T11:50:04.764Z,8.35
2022-10-04T11:53:56.831Z,7.07
2022-10-04T11:57:25.945Z,10.23
2022-10-04T12:01:05.000Z,5.15
2022-10-04T12:04:53.740Z,9.02
2022-10-04T12:08:17.140Z,6.43
2022-10-04T12:12:11.462Z,7.53
2022-10-04T12:15:45.241Z,9.63
2022-10-04T12:19:15.800Z,7.07
2022-10-04T12:22:50.194Z,11.82
2022-10-04T12:26:24.302Z,10.13
2022-10-04T12:30:06.045Z,7.57
2022-10-04T12:33:19.286Z,6.97
2022-10-04T12:36:38.028Z,12.40
2022-10-04T12:40:16.511Z,8.60
2022-10-04T12:43:31.604Z,7.57
2022-10-04T12:46:45.887Z,8.82
2022-10-04T12:49:58.032Z,12.13
2022-10-04T12:53:22.604Z,12.57
2022-10-04T12:56:47.358Z,9.00
2022-10-04T13:00:01.201Z,9.15
2022-10-04T13:03:32.836Z,9.02
2022-10-04T13:06:51.960Z,10.50
2022-10-04T13:10:29.654Z,10.27
2022-10-04T13:14:14.890Z,10.20
2022-10-04T13:17:36.610Z,6.95
2022-10-04T13:20:52.015Z,6.95
2022-10-04T13:24:05.374Z,4.82
2022-10-04T13:27:16.164Z,8.98
2022-10-04T13:30:26.319Z,9.43
2022-10-04T13:33:40.280Z,14.23
2022-10-04T13:37:01.851Z,8.10
2022-10-04T13:40:39.561Z,7.13
2022-10-04T13:44:02.188Z,8.05
2022-10-04T13:47:27.729Z,4.82
2022-10-04T13:51:02.585Z,6.57
2022-10-04T13:54:37.801Z,4.60
2022-10-04T13:57:49.612Z,8.75
2022-10-04T14:01:44.010Z,8.73
2022-10-04T14:05:33.409Z,8.63
2022-10-04T14:09:18.214Z,5.93
2022-10-04T14:12:45.980Z,10.05
2022-10-04T14:16:15.486Z,6.78
2022-10-04T14:20:00.485Z,7.97
2022-10-04T14:23:54.513Z,6.20
2022-10-04T14:27:48.840Z,7.55
2022-10-04T14:31:15.222Z,5.40
2022-10-04T14:34:58.653Z,7.32
2022-10-04T14:38:39.936Z,6.25
2022-10-04T14:42:26.583Z,7.80
2022-10-04T14:45:39.738Z,6.63
2022-10-04T14:48:53.621Z,5.25
2022-10-04T14:52:16.699Z,7.22
2022-10-04T14:55:49.138Z,4.25
2022-10-04T14:59:12.254Z,5.82
2022-10-04T15:02:50.693Z,5.60
2022-10-04T15:06:25.933Z,6.15
2022-10-04T15:09:54.125Z,5.25
2022-10-04T15:13:11.879Z,8.57
2022-10-04T15:16:30.597Z,6.95
2022-10-04T15:19:49.706Z,6.15
2022-10-04T15:22:58.047Z,3.78
2022-10-04T15:26:12.968Z,7.18
2022-10-04T15:29:25.351Z,7.13
2022-10-04T15:32:35.788Z,3.33
2022-10-04T15:35:50.755Z,4.80
2022-10-04T15:39:02.454Z,5.13
2022-10-04T15:42:14.968Z,5.32
2022-10-04T15:45:38.710Z,4.88
2022-10-04T15:48:59.509Z,6.47
2022-10-04T15:52:19.822Z,6.80
2022-10-04T15:55:48.192Z,5.85
2022-10-04T15:59:15.228Z,4.65
2022-10-04T16:02:37.146Z,5.25
2022-10-04T16:05:47.342Z,4.10
2022-10-04T16:09:29.354Z,5.20
2022-10-04T16:12:42.661Z,5.35
2022-10-04T16:15:49.730Z,7.00
2022-10-04T16:19:09.781Z,8.10
2022-10-04T16:22:17.096Z,4.80
2022-10-04T16:25:39.178Z,6.22
2022-10-04T16:29:08.489Z,8.45
2022-10-04T16:32:17.212Z,6.35
2022-10-04T16:35:30.436Z,8.25
2022-10-04T16:39:06.449Z,5.53
2022-10-04T16:42:15.688Z,7.55
2022-10-04T16:45:41.468Z,6.70
2022-10-04T16:48:56.569Z,10.77
2022-10-04T16:52:23.045Z,6.95
2022-10-04T16:55:51.839Z,7.05
2022-10-04T16:59:00.506Z,7.35
2022-10-04T17:02:27.784Z,5.97
2022-10-04T17:06:00.690Z,15.60
2022-10-04T17:09:18.656Z,5.95
2022-10-04T17:12:29.564Z,6.47
2022-10-04T17:15:49.525Z,10.50
2022-10-04T17:19:10.395Z,6.13
2022-10-04T17:22:28.753Z,14.20
2022-10-04T17:25:45.418Z,11.05
2022-10-04T17:28:57.111Z,7.50
2022-10-04T17:32:12.367Z,6.50
2022-10-04T17:35:54.354Z,9.67
2022-10-04T17:39:23.192Z,8.93
2022-10-04T17:42:36.332Z,6.33
2022-10-04T17:45:58.676Z,7.40
2022-10-04T17:49:29.194Z,7.73
2022-10-04T17:53:00.868Z,6.00
2022-10-04T17:56:08.173Z,8.97
2022-10-04T17:59:16.703Z,9.23
2022-10-04T18:02:29.226Z,12.67
2022-10-04T18:05:46.180Z,11.77
2022-10-04T18:08:56.576Z,8.40
2022-10-04T18:12:04.733Z,8.67
2022-10-04T18:15:27.149Z,8.07
2022-10-04T18:18:39.364Z,7.67
2022-10-04T18:21:53.345Z,6.40
2022-10-04T18:25:15.561Z,5.57
2022-10-04T18:28:23.118Z,8.93
2022-10-04T18:31:38.381Z,12.30
2022-10-04T18:34:41.790Z,11.70
2022-10-04T18:37:44.903Z,14.47
2022-10-04T18:40:56.814Z,13.70
2022-10-04T18:44:14.775Z,11.40
2022-10-04T18:47:21.365Z,6.70
2022-10-04T18:50:35.273Z,8.90
2022-10-04T18:53:44.968Z,7.43
2022-10-04T18:57:00.055Z,9.63
2022-10-04T19:00:29.085Z,7.40
2022-10-04T19:03:42.228Z,8.63
2022-10-04T19:06:48.185Z,9.60
2022-10-04T19:10:04.923Z,8.70
2022-10-04T19:13:31.167Z,10.10
2022-10-04T19:16:44.889Z,7.67
2022-10-04T19:19:57.525Z,9.67
2022-10-04T19:23:15.474Z,9.90
2022-10-04T19:26:32.070Z,5.47
2022-10-04T19:30:13.695Z,9.90
2022-10-04T19:33:24.848Z,7.70
2022-10-04T19:36:46.795Z,14.80
2022-10-04T19:40:04.913Z,9.63
2022-10-04T19:43:12.286Z,11.90
2022-10-04T19:46:33.350Z,10.80
2022-10-04T19:49:51.956Z,10.13
2022-10-04T19:52:59.749Z,7.40
2022-10-04T19:56:08.316Z,11.00
2022-10-04T19:59:18.812Z,8.03
2022-10-04T20:02:21.784Z,10.53
2022-10-04T20:05:26.488Z,12.77
2022-10-04T20:09:01.584Z,10.30
2022-10-04T20:12:06.664Z,11.53
2022-10-04T20:15:26.581Z,10.07
2022-10-04T20:18:59.642Z,12.07
2022-10-04T20:26:06.127Z,7.80
2022-10-04T20:29:09.206Z,13.67
2022-10-04T20:32:50.224Z,11.47
2022-10-04T20:36:03.251Z,10.43
2022-10-04T20:39:07.889Z,9.47
2022-10-04T20:42:20.221Z,10.37
2022-10-04T20:45:33.220Z,16.80
2022-10-04T20:48:36.368Z,9.33
2022-10-04T20:51:39.701Z,9.57
2022-10-04T20:54:52.619Z,12.30
2022-10-04T20:58:01.294Z,12.77
2022-10-04T21:01:36.702Z,8.17
2022-10-04T21:04:43.997Z,8.40
2022-10-04T21:07:47.728Z,10.77
2022-10-04T21:11:25.235Z,11.60
2022-10-04T21:14:32.054Z,10.43
2022-10-04T21:17:38.195Z,10.77
2022-10-04T21:20:47.230Z,15.10
2022-10-04T21:23:50.543Z,8.03
2022-10-04T21:26:56.762Z,11.07
2022-10-04T21:30:03.561Z,9.47
2022-10-04T21:33:06.754Z,10.07
2022-10-04T21:36:10.577Z,9.50
2022-10-04T21:39:13.957Z,9.83
2022-10-04T21:42:19.484Z,12.97
2022-10-04T21:45:24.289Z,11.17
2022-10-04T21:48:28.278Z,9.27
2022-10-04T21:51:39.183Z,7.03
2022-10-04T21:54:43.352Z,10.73
2022-10-04T21:57:56.152Z,10.83
2022-10-04T22:01:05.256Z,10.67
2022-10-04T22:04:09.006Z,10.77
2022-10-04T22:07:18.111Z,12.83
2022-10-04T22:10:31.206Z,10.70
2022-10-04T22:13:40.353Z,11.80
2022-10-04T22:16:54.442Z,12.17
2022-10-04T22:20:03.867Z,11.87
2022-10-04T22:23:25.756Z,11.47
2022-10-04T22:26:36.545Z,9.60
2022-10-04T22:29:42.743Z,9.70
2022-10-04T22:32:52.235Z,12.13
2022-10-04T22:36:31.140Z,10.80
2022-10-04T22:39:36.100Z,10.60
2022-10-04T22:42:54.176Z,8.93
2022-10-04T22:45:58.239Z,11.63
2022-10-04T22:49:17.507Z,9.70
2022-10-04T22:52:23.584Z,9.40
2022-10-04T22:55:27.788Z,8.40
2022-10-04T22:58:37.193Z,12.43
2022-10-04T23:01:41.351Z,8.17
2022-10-04T23:04:58.221Z,9.70
2022-10-04T23:08:20.498Z,9.40
2022-10-04T23:11:30.742Z,14.07
2022-10-04T23:14:46.817Z,9.90
2022-10-04T23:17:56.329Z,7.93
2022-10-04T23:21:19.877Z,7.70
2022-10-04T23:24:24.512Z,8.50
2022-10-04T23:27:27.969Z,10.33
2022-10-04T23:30:31.358Z,10.60
2022-10-04T23:33:35.417Z,9.67
2022-10-04T23:36:40.452Z,9.20
2022-10-04T23:39:44.813Z,9.20
2022-10-04T23:42:52.060Z,8.47
2022-10-04T23:45:57.681Z,10.03
2022-10-04T23:49:01.345Z,8.57
2022-10-04T23:52:11.283Z,8.77
2022-10-04T23:55:20.470Z,11.10
2022-10-04T23:58:28.225Z,10.87
